Time;durP1;ratioP1;P1;durP2;ratioP2;P2;SDS_P1;SDS_P2;PMS_P1;PMS_P2;Temp;Humidity;BMP_temperature;BMP_pressure;BME280_temperature;BME280_humidity;BME280_pressure;Samples;Min_cycle;Max_cycle;Signal;HPM_P1;HPM_P2
2021/03/27 00:01:42;;;;;;;1999.90;999.90;;;19.10;94.70;;;;;;5053321;28;20531;-49
2021/03/27 00:04:20;;;;;;;1999.90;999.90;;;19.10;94.70;;;;;;5053434;28;20169;-50
2021/03/27 00:06:51;;;;;;;1999.90;999.90;;;19.10;94.80;;;;;;5053280;28;20184;-49
2021/03/27 00:09:49;;;;;;;1999.90;999.90;;;19.10;95.50;;;;;;5053235;28;20162;-37
2021/03/27 00:12:32;;;;;;;1999.90;999.90;;;18.90;96.50;;;;;;5047510;28;20193;-42
2021/03/27 00:15:11;;;;;;;1999.90;999.90;;;18.80;97.40;;;;;;5053113;28;20163;-50
2021/03/27 00:17:44;;;;;;;1999.90;999.90;;;18.50;98.30;;;;;;5053216;28;20172;-46
2021/03/27 00:20:43;;;;;;;1999.90;999.90;;;18.40;99.40;;;;;;5053352;28;20188;-39
2021/03/27 00:23:16;;;;;;;1999.90;999.90;;;18.20;99.90;;;;;;5053022;28;20167;-48
2021/03/27 00:25:58;;;;;;;1999.90;999.90;;;18.00;99.90;;;;;;5051706;28;20242;-34
2021/03/27 00:28:30;;;;;;;1999.90;999.90;;;17.70;99.90;;;;;;5052939;28;20153;-50
2021/03/27 00:31:09;;;;;;;1999.90;999.90;;;17.60;99.90;;;;;;5052960;28;20157;-49
2021/03/27 00:33:38;;;;;;;1999.90;999.90;;;17.60;99.90;;;;;;5052477;28;20204;-45
2021/03/27 00:36:19;;;;;;;1999.90;999.90;;;17.60;99.90;;;;;;5052969;28;20640;-44
2021/03/27 00:39:09;;;;;;;1999.90;999.90;;;17.60;99.90;;;;;;5052877;28;20164;-49
2021/03/27 00:41:50;;;;;;;1999.90;999.90;;;17.60;99.90;;;;;;5052661;28;20193;-40
2021/03/27 00:44:18;;;;;;;1999.90;999.90;;;17.50;99.90;;;;;;5052833;28;20153;-45
2021/03/27 00:46:47;;;;;;;1999.90;999.90;;;17.50;99.90;;;;;;5052658;28;20292;-48
2021/03/27 00:49:17;;;;;;;1999.90;999.90;;;17.50;99.90;;;;;;5052728;28;20244;-50
2021/03/27 00:51:53;;;;;;;1999.90;999.90;;;17.50;99.90;;;;;;5052736;28;20185;-47
2021/03/27 00:54:34;;;;;;;1999.90;999.90;;;17.60;99.90;;;;;;5052699;28;20172;-49
2021/03/27 00:57:20;;;;;;;1999.90;999.90;;;17.60;99.90;;;;;;5052664;28;20211;-49
2021/03/27 01:00:08;;;;;;;1999.90;999.90;;;17.70;99.90;;;;;;5052752;28;20654;-46
2021/03/27 01:02:45;;;;;;;1999.90;999.90;;;17.70;99.90;;;;;;5052793;28;20754;-50
2021/03/27 01:05:17;;;;;;;1999.90;999.90;;;17.80;99.90;;;;;;5052545;28;20193;-51
2021/03/27 01:07:45;;;;;;;1999.90;999.90;;;17.80;99.90;;;;;;5052602;28;20160;-39
2021/03/27 01:10:26;;;;;;;1999.90;999.90;;;17.80;99.90;;;;;;5052462;28;20573;-50
2021/03/27 01:12:54;;;;;;;1999.90;999.90;;;17.80;99.90;;;;;;5052653;28;20651;-51
2021/03/27 01:15:46;;;;;;;1999.90;999.90;;;17.90;99.90;;;;;;5052517;28;20161;-50
2021/03/27 01:18:19;;;;;;;1999.90;999.90;;;17.80;99.90;;;;;;5052252;28;20678;-50
2021/03/27 01:20:53;;;;;;;1999.90;999.90;;;17.80;99.90;;;;;;5052475;28;20528;-39
2021/03/27 01:23:20;;;;;;;1999.90;999.90;;;17.90;99.90;;;;;;5052783;28;20265;-41
2021/03/27 01:25:48;;;;;;;1999.90;999.90;;;17.80;99.90;;;;;;5052401;28;20211;-51
2021/03/27 01:28:50;;;;;;;1999.90;999.90;;;17.80;99.90;;;;;;5052333;28;20161;-47
2021/03/27 01:31:20;;;;;;;1999.90;999.90;;;17.80;99.90;;;;;;5045046;28;20212;-47
2021/03/27 01:34:19;;;;;;;1999.90;999.90;;;17.80;99.90;;;;;;5052169;28;20251;-47
2021/03/27 01:37:10;;;;;;;1999.90;999.90;;;17.80;99.90;;;;;;5036220;28;20185;-48
2021/03/27 01:39:45;;;;;;;1999.90;999.90;;;17.80;99.90;;;;;;5052274;28;20232;-41
2021/03/27 01:42:15;;;;;;;1999.90;999.90;;;17.80;99.90;;;;;;5052401;28;20528;-50
2021/03/27 01:45:07;;;;;;;1999.90;999.90;;;17.80;99.90;;;;;;5053959;28;20173;-49
2021/03/27 01:48:04;;;;;;;1999.90;999.90;;;17.80;99.90;;;;;;5050238;28;20196;-45
2021/03/27 01:51:08;;;;;;;1999.90;999.90;;;17.90;99.90;;;;;;5055914;28;20291;-50
2021/03/27 01:53:52;;;;;;;1999.90;999.90;;;18.00;99.90;;;;;;5021377;28;20185;-51
2021/03/27 01:56:43;;;;;;;1999.90;999.90;;;18.00;99.90;;;;;;5055736;28;20240;-51
2021/03/27 01:59:21;;;;;;;1999.90;999.90;;;18.00;99.90;;;;;;5055784;28;20526;-51
2021/03/27 02:02:19;;;;;;;1999.90;999.90;;;17.90;99.90;;;;;;5055577;28;20631;-51
2021/03/27 02:04:54;;;;;;;1999.90;999.90;;;17.80;99.90;;;;;;5055095;28;20216;-37
2021/03/27 02:07:44;;;;;;;1999.90;999.90;;;17.80;99.90;;;;;;5055588;28;20157;-51
2021/03/27 02:10:37;;;;;;;1999.90;999.90;;;17.80;99.90;;;;;;5055485;28;20586;-51
2021/03/27 02:13:23;;;;;;;1999.90;999.90;;;17.90;99.90;;;;;;5055388;28;20358;-50
2021/03/27 02:16:05;;;;;;;1999.90;999.90;;;17.80;99.90;;;;;;5055333;28;20252;-49
2021/03/27 02:18:54;;;;;;;1999.90;999.90;;;17.90;99.90;;;;;;5055328;28;20165;-50
2021/03/27 02:21:47;;;;;;;1999.90;999.90;;;17.90;99.90;;;;;;5055313;28;20248;-51
2021/03/27 02:24:47;;;;;;;1999.90;999.90;;;17.90;99.90;;;;;;5034240;28;20185;-50
2021/03/27 02:27:39;;;;;;;1999.90;999.90;;;18.00;99.90;;;;;;5055278;28;20340;-50
2021/03/27 02:30:12;;;;;;;1999.90;999.90;;;17.90;99.90;;;;;;5055119;28;20157;-39
2021/03/27 02:32:49;;;;;;;1999.90;999.90;;;17.90;99.90;;;;;;5055060;28;20162;-47
2021/03/27 02:35:42;;;;;;;1999.90;999.90;;;17.90;99.90;;;;;;5054921;28;20231;-44
2021/03/27 02:38:39;;;;;;;1999.90;999.90;;;17.90;99.90;;;;;;5053229;28;20189;-49
2021/03/27 02:41:44;;;;;;;1999.90;999.90;;;17.80;99.90;;;;;;5054856;28;20667;-44
2021/03/27 02:44:31;;;;;;;1999.90;999.90;;;17.70;99.90;;;;;;5042715;28;20248;-50
2021/03/27 02:47:12;;;;;;;1999.90;999.90;;;17.70;99.90;;;;;;5054748;28;20661;-50
2021/03/27 02:49:49;;;;;;;1999.90;999.90;;;17.70;99.90;;;;;;5054707;28;20166;-44
2021/03/27 02:52:57;;;;;;;1999.90;999.90;;;17.70;99.90;;;;;;5054902;28;20165;-46
2021/03/27 02:55:40;;;;;;;1999.90;999.90;;;17.60;99.90;;;;;;5054230;28;20680;-49
2021/03/27 02:58:07;;;;;;;1999.90;999.90;;;17.70;99.90;;;;;;5054581;28;20161;-49
2021/03/27 03:00:46;;;;;;;1999.90;999.90;;;17.70;99.90;;;;;;5054561;28;20627;-49
2021/03/27 03:03:22;;;;;;;1999.90;999.90;;;17.70;99.90;;;;;;5054476;28;20161;-50
2021/03/27 03:06:15;;;;;;;1999.90;999.90;;;17.70;99.90;;;;;;5054385;28;20201;-34
2021/03/27 03:09:04;;;;;;;1999.90;999.90;;;17.70;99.90;;;;;;5054216;28;20169;-49
2021/03/27 03:11:34;;;;;;;1999.90;999.90;;;17.70;99.90;;;;;;5054372;28;20172;-50
2021/03/27 03:14:14;;;;;;;1999.90;999.90;;;17.70;99.90;;;;;;5054224;28;20678;-52
2021/03/27 03:16:46;;;;;;;1999.90;999.90;;;17.70;99.90;;;;;;5054173;28;20153;-50
2021/03/27 03:19:29;;;;;;;1999.90;999.90;;;17.70;99.90;;;;;;5053999;28;20154;-49
2021/03/27 03:21:58;;;;;;;1999.90;999.90;;;17.70;99.90;;;;;;5054018;28;20525;-49
2021/03/27 03:24:48;;;;;;;1999.90;999.90;;;17.60;99.90;;;;;;5053964;28;20642;-49
2021/03/27 03:27:23;;;;;;;1999.90;999.90;;;17.60;99.90;;;;;;5053879;28;20261;-45
2021/03/27 03:30:00;;;;;;;1999.90;999.90;;;17.50;99.40;;;;;;5054031;28;20162;-49
2021/03/27 03:32:50;;;;;;;1999.90;999.90;;;17.50;99.70;;;;;;5053765;28;20180;-45
2021/03/27 03:35:40;;;;;;;1999.90;999.90;;;17.50;99.80;;;;;;5053765;28;20224;-49
2021/03/27 03:38:44;;;;;;;1999.90;999.90;;;17.60;99.20;;;;;;5053689;28;20168;-45
2021/03/27 03:41:42;;;;;;;1999.90;999.90;;;17.70;97.40;;;;;;5032539;28;20188;-50
2021/03/27 03:44:33;;;;;;;1999.90;999.90;;;17.70;97.40;;;;;;5053538;28;20173;-50
2021/03/27 03:47:06;;;;;;;1999.90;999.90;;;17.70;96.80;;;;;;5053586;28;20240;-50
2021/03/27 03:49:59;;;;;;;1999.90;999.90;;;17.60;97.10;;;;;;5053567;28;20165;-38
2021/03/27 03:53:07;;;;;;;1999.90;999.90;;;17.60;97.90;;;;;;5049033;28;20227;-46
2021/03/27 03:55:53;;;;;;;1999.90;999.90;;;17.60;96.80;;;;;;5053305;28;20169;-43
2021/03/27 03:58:36;;;;;;;1999.90;999.90;;;17.60;95.60;;;;;;5053649;28;20158;-49
2021/03/27 04:01:10;;;;;;;1999.90;999.90;;;17.70;94.30;;;;;;5053262;28;20169;-53
2021/03/27 04:03:55;;;;;;;1999.90;999.90;;;17.60;94.50;;;;;;5053296;28;20158;-49
2021/03/27 04:06:28;;;;;;;1999.90;999.90;;;17.70;94.40;;;;;;5052930;28;20659;-50
2021/03/27 04:09:20;;;;;;;1999.90;999.90;;;17.70;94.40;;;;;;5053063;28;20236;-35
2021/03/27 04:12:01;;;;;;;1999.90;999.90;;;17.60;94.30;;;;;;5053152;28;20278;-48
2021/03/27 04:14:28;;;;;;;1999.90;999.90;;;17.70;94.60;;;;;;5053254;28;20158;-48
2021/03/27 04:17:39;;;;;;;1999.90;999.90;;;17.60;94.30;;;;;;5053394;28;20165;-48
2021/03/27 04:20:11;;;;;;;1999.90;999.90;;;17.70;94.60;;;;;;5011415;28;20178;-43
2021/03/27 04:22:45;;;;;;;1999.90;999.90;;;17.70;93.40;;;;;;5011436;28;20214;-48
2021/03/27 04:25:27;;;;;;;1999.90;999.90;;;17.70;93.60;;;;;;5034904;28;20204;-49
2021/03/27 04:28:44;;;;;;;1999.90;999.90;;;17.70;93.70;;;;;;5053127;28;20200;-48
2021/03/27 04:31:25;;;;;;;1999.90;999.90;;;17.70;93.00;;;;;;5035761;28;20584;-48
2021/03/27 04:34:14;;;;;;;1999.90;999.90;;;17.70;92.40;;;;;;5053048;28;20212;-49
2021/03/27 04:37:12;;;;;;;1999.90;999.90;;;17.70;92.70;;;;;;5052754;28;20204;-49
2021/03/27 04:40:05;;;;;;;1999.90;999.90;;;17.70;91.80;;;;;;5052749;28;20197;-48
2021/03/27 04:42:56;;;;;;;1999.90;999.90;;;17.70;92.00;;;;;;5052871;28;20224;-50
2021/03/27 04:45:26;;;;;;;1999.90;999.90;;;17.70;91.90;;;;;;5052856;28;20210;-48
2021/03/27 04:48:16;;;;;;;1999.90;999.90;;;17.70;92.00;;;;;;5052865;28;20177;-50
2021/03/27 04:50:46;;;;;;;1999.90;999.90;;;17.70;91.90;;;;;;5052825;28;20228;-49
2021/03/27 04:53:32;;;;;;;1999.90;999.90;;;17.70;92.30;;;;;;5052791;28;20219;-41
2021/03/27 04:56:09;;;;;;;1999.90;999.90;;;17.70;92.60;;;;;;5052737;28;20518;-48
2021/03/27 04:58:51;;;;;;;1999.90;999.90;;;17.70;92.70;;;;;;5052755;28;20176;-45
2021/03/27 05:01:48;;;;;;;1999.90;999.90;;;17.70;92.60;;;;;;5052649;28;20626;-50
2021/03/27 05:04:49;;;;;;;1999.90;999.90;;;17.70;92.80;;;;;;5052666;28;20558;-51
2021/03/27 05:07:25;;;;;;;1999.90;999.90;;;17.60;93.00;;;;;;5052681;28;20176;-42
2021/03/27 05:10:07;;;;;;;1999.90;999.90;;;17.60;92.80;;;;;;5052612;28;20562;-50
2021/03/27 05:12:59;;;;;;;1999.90;999.90;;;17.60;93.30;;;;;;5052735;28;20232;-50
2021/03/27 05:15:38;;;;;;;1999.90;999.90;;;17.70;93.10;;;;;;5052698;28;20162;-48
2021/03/27 05:18:18;;;;;;;1999.90;999.90;;;17.70;92.80;;;;;;5053380;28;20153;-38
2021/03/27 05:20:51;;;;;;;1999.90;999.90;;;17.70;92.60;;;;;;5056388;28;20161;-49
2021/03/27 05:23:52;;;;;;;1999.90;999.90;;;17.70;92.30;;;;;;5056357;28;20215;-51
2021/03/27 05:26:28;;;;;;;1999.90;999.90;;;17.80;91.80;;;;;;5056155;28;20208;-50
2021/03/27 05:29:19;;;;;;;1999.90;999.90;;;17.80;91.70;;;;;;5056238;28;20600;-50
2021/03/27 05:31:57;;;;;;;1999.90;999.90;;;17.80;92.10;;;;;;5056211;28;20165;-41
2021/03/27 05:34:36;;;;;;;1999.90;999.90;;;17.90;92.00;;;;;;5055884;28;20220;-49
2021/03/27 05:37:25;;;;;;;1999.90;999.90;;;17.90;92.20;;;;;;5056146;28;20192;-48
2021/03/27 05:40:02;;;;;;;1999.90;999.90;;;17.90;92.10;;;;;;5056114;28;20157;-48
2021/03/27 05:42:55;;;;;;;1999.90;999.90;;;17.90;92.20;;;;;;5056231;28;20259;-47
2021/03/27 05:45:35;;;;;;;1999.90;999.90;;;17.90;91.70;;;;;;5055875;28;20196;-49
2021/03/27 05:48:48;;;;;;;1999.90;999.90;;;18.00;92.30;;;;;;5056182;28;20168;-39
2021/03/27 05:51:52;;;;;;;1999.90;999.90;;;18.10;91.30;;;;;;5055806;28;20177;-49
2021/03/27 05:54:37;;;;;;;1999.90;999.90;;;18.20;91.80;;;;;;5055743;28;20165;-49
2021/03/27 05:57:34;;;;;;;1999.90;999.90;;;18.20;91.30;;;;;;5055801;28;20157;-43
2021/03/27 06:00:16;;;;;;;1999.90;999.90;;;18.30;91.20;;;;;;5055869;28;20173;-51
2021/03/27 06:03:16;;;;;;;1999.90;999.90;;;18.40;91.30;;;;;;5055763;28;20709;-53
2021/03/27 06:05:55;;;;;;;1999.90;999.90;;;18.60;91.30;;;;;;5055568;28;20331;-50
2021/03/27 06:08:35;;;;;;;1999.90;999.90;;;18.70;90.80;;;;;;5055588;28;20154;-50
2021/03/27 06:11:15;;;;;;;1999.90;999.90;;;18.70;90.40;;;;;;5055568;28;20620;-48
2021/03/27 06:14:15;;;;;;;1999.90;999.90;;;18.60;90.50;;;;;;5055490;28;20184;-49
2021/03/27 06:17:12;;;;;;;1999.90;999.90;;;18.70;90.90;;;;;;5038700;28;20682;-49
2021/03/27 06:20:16;;;;;;;1999.90;999.90;;;18.60;90.50;;;;;;5055317;28;20179;-50
2021/03/27 06:23:12;;;;;;;1999.90;999.90;;;18.60;91.40;;;;;;5055236;28;20251;-49
2021/03/27 06:26:19;;;;;;;1999.90;999.90;;;18.70;89.20;;;;;;5055237;28;20200;-47
2021/03/27 06:28:46;;;;;;;1999.90;999.90;;;18.70;90.60;;;;;;5055118;28;20157;-45
2021/03/27 06:31:39;;;;;;;1999.90;999.90;;;18.70;91.20;;;;;;5054335;28;20173;-43
2021/03/27 06:34:39;;;;;;;1999.90;999.90;;;18.60;91.20;;;;;;5054907;28;20219;-45
2021/03/27 06:37:51;;;;;;;1999.90;999.90;;;18.60;90.40;;;;;;5055105;28;20172;-46
2021/03/27 06:40:20;;;;;;;1999.90;999.90;;;18.60;90.90;;;;;;5054931;28;20157;-49
2021/03/27 06:43:16;;;;;;;1999.90;999.90;;;18.40;91.10;;;;;;5054871;28;20168;-51
2021/03/27 06:46:01;;;;;;;1999.90;999.90;;;18.40;91.50;;;;;;5033418;28;20205;-53
2021/03/27 06:48:40;;;;;;;1999.90;999.90;;;18.50;91.50;;;;;;5054900;28;20619;-40
2021/03/27 06:51:21;;;;;;;1999.90;999.90;;;18.70;91.10;;;;;;5054751;28;20180;-52
2021/03/27 06:54:15;;;;;;;1999.90;999.90;;;18.90;89.80;;;;;;5054746;28;20157;-50
2021/03/27 06:57:03;;;;;;;1999.90;999.90;;;19.10;89.60;;;;;;5054609;28;20184;-48
2021/03/27 07:00:00;;;;;;;1999.90;999.90;;;19.30;90.00;;;;;;5054481;28;20188;-52
2021/03/27 07:02:35;;;;;;;1999.90;999.90;;;19.50;90.10;;;;;;5054218;28;20236;-41
2021/03/27 07:05:20;;;;;;;1999.90;999.90;;;19.70;89.80;;;;;;5053876;28;20185;-48
2021/03/27 07:08:05;;;;;;;1999.90;999.90;;;19.70;88.40;;;;;;5054176;28;20176;-50
2021/03/27 07:10:46;;;;;;;1999.90;999.90;;;19.70;88.20;;;;;;5054067;28;20157;-49
2021/03/27 07:13:16;;;;;;;1999.90;999.90;;;19.70;81.30;;;;;;5053978;28;20161;-51
2021/03/27 07:16:04;;;;;;;1999.90;999.90;;;19.80;81.10;;;;;;5053879;28;20252;-48
2021/03/27 07:18:55;;;;;;;1999.90;999.90;;;19.80;80.10;;;;;;5053695;28;20569;-48
2021/03/27 07:21:28;;;;;;;1999.90;999.90;;;19.80;79.80;;;;;;5053749;28;20153;-52
2021/03/27 07:24:01;;;;;;;1999.90;999.90;;;19.80;80.00;;;;;;5053764;28;20176;-50
2021/03/27 07:26:37;;;;;;;1999.90;999.90;;;19.90;79.20;;;;;;5053674;28;20201;-51
2021/03/27 07:29:32;;;;;;;1999.90;999.90;;;19.70;81.30;;;;;;5053656;28;20567;-38
2021/03/27 07:32:21;;;;;;;1999.90;999.90;;;19.80;81.00;;;;;;5053564;28;20207;-50
2021/03/27 07:35:05;;;;;;;1999.90;999.90;;;20.00;80.30;;;;;;5047174;28;20213;-43
2021/03/27 07:38:06;;;;;;;1999.90;999.90;;;20.20;78.70;;;;;;5053544;28;20189;-52
2021/03/27 07:40:54;;;;;;;1999.90;999.90;;;20.50;76.70;;;;;;5053537;28;20153;-50
2021/03/27 07:43:27;;;;;;;1999.90;999.90;;;20.70;75.70;;;;;;5052689;28;20168;-53
2021/03/27 07:46:24;;;;;;;1999.90;999.90;;;21.10;74.60;;;;;;5053254;28;20232;-50
2021/03/27 07:49:20;;;;;;;1999.90;999.90;;;21.20;74.00;;;;;;5053275;28;20160;-51
2021/03/27 07:52:11;;;;;;;1999.90;999.90;;;21.20;74.70;;;;;;5053298;28;20598;-45
2021/03/27 07:55:00;;;;;;;1999.90;999.90;;;21.70;71.10;;;;;;5053305;28;20161;-51
2021/03/27 07:57:56;;;;;;;1999.90;999.90;;;22.40;66.70;;;;;;5053157;28;20206;-48
2021/03/27 08:00:39;;;;;;;1999.90;999.90;;;22.40;64.80;;;;;;5053128;28;20525;-47
2021/03/27 08:03:29;;;;;;;1999.90;999.90;;;22.00;64.20;;;;;;5051730;28;20204;-47
2021/03/27 08:06:17;;;;;;;1999.90;999.90;;;21.60;66.80;;;;;;5052901;28;20207;-44
2021/03/27 08:09:12;;;;;;;1999.90;999.90;;;21.40;68.70;;;;;;5053189;28;20164;-41
2021/03/27 08:11:57;;;;;;;1999.90;999.90;;;21.50;67.30;;;;;;5048362;28;20260;-51
2021/03/27 08:14:42;;;;;;;1999.90;999.90;;;21.80;66.70;;;;;;5052962;28;20208;-50
2021/03/27 08:17:38;;;;;;;1999.90;999.90;;;22.10;65.30;;;;;;5052856;28;20153;-52
2021/03/27 08:20:45;;;;;;;1999.90;999.90;;;22.40;63.80;;;;;;5035291;28;20217;-47
2021/03/27 08:23:38;;;;;;;1999.90;999.90;;;22.80;63.50;;;;;;5052857;28;20169;-49
2021/03/27 08:26:05;;;;;;;1999.90;999.90;;;22.70;61.60;;;;;;5052535;28;20213;-46
2021/03/27 08:28:35;;;;;;;1999.90;999.90;;;22.60;62.90;;;;;;5052597;28;20635;-47
2021/03/27 08:31:17;;;;;;;1999.90;999.90;;;23.40;58.50;;;;;;5052554;28;20161;-43
2021/03/27 08:34:22;;;;;;;1999.90;999.90;;;23.50;56.40;;;;;;5052539;28;20228;-48
2021/03/27 08:36:58;;;;;;;1999.90;999.90;;;23.60;56.50;;;;;;5052400;28;20617;-49
2021/03/27 08:39:52;;;;;;;1999.90;999.90;;;23.80;55.80;;;;;;5052482;28;20684;-46
2021/03/27 08:42:40;;;;;;;1999.90;999.90;;;23.20;57.30;;;;;;5052541;28;20153;-50
2021/03/27 08:45:21;;;;;;;1999.90;999.90;;;23.50;57.90;;;;;;5052442;28;20193;-46
2021/03/27 08:48:21;;;;;;;1999.90;999.90;;;24.60;55.10;;;;;;5052373;28;20756;-47
2021/03/27 08:51:12;;;;;;;1999.90;999.90;;;25.00;53.30;;;;;;5052256;28;20180;-41
2021/03/27 08:53:54;;;;;;;1999.90;999.90;;;24.20;55.50;;;;;;5054127;28;20157;-46
2021/03/27 08:56:42;;;;;;;1999.90;999.90;;;24.90;53.60;;;;;;5056624;28;20560;-45
2021/03/27 08:59:18;;;;;;;1999.90;999.90;;;25.20;51.00;;;;;;5056454;28;20211;-49
2021/03/27 09:02:23;;;;;;;1999.90;999.90;;;24.80;52.50;;;;;;5056465;28;20240;-47
2021/03/27 09:05:17;;;;;;;1999.90;999.90;;;24.80;53.10;;;;;;5054957;28;20168;-46
2021/03/27 09:08:07;;;;;;;1999.90;999.90;;;24.20;53.90;;;;;;5056346;28;20504;-49
2021/03/27 09:10:47;;;;;;;1999.90;999.90;;;23.60;55.30;;;;;;5056440;28;20161;-50
2021/03/27 09:13:26;;;;;;;1999.90;999.90;;;22.70;57.30;;;;;;5056579;28;20260;-47
2021/03/27 09:16:27;;;;;;;1999.90;999.90;;;22.40;59.50;;;;;;5056567;28;20161;-48
2021/03/27 09:19:35;;;;;;;1999.90;999.90;;;22.50;59.60;;;;;;5056272;28;20157;-45
2021/03/27 09:22:17;;;;;;;1999.90;999.90;;;23.70;58.90;;;;;;5056218;28;20167;-46
2021/03/27 09:24:56;;;;;;;1999.90;999.90;;;25.20;51.50;;;;;;5056032;28;20237;-48
2021/03/27 09:27:41;;;;;;;1999.90;999.90;;;26.40;48.70;;;;;;5056060;28;20176;-36
2021/03/27 09:30:17;;;;;;;1999.90;999.90;;;26.50;45.50;;;;;;5055824;28;20166;-50
2021/03/27 09:32:49;;;;;;;1999.90;999.90;;;26.00;47.50;;;;;;5055778;28;20163;-50
2021/03/27 09:35:18;;;;;;;1999.90;999.90;;;24.90;48.20;;;;;;5055631;28;20217;-47
2021/03/27 09:37:58;;;;;;;1999.90;999.90;;;24.90;49.20;;;;;;5055908;28;20165;-47
2021/03/27 09:40:51;;;;;;;1999.90;999.90;;;24.80;50.00;;;;;;5055544;28;20620;-46
2021/03/27 09:43:32;;;;;;;1999.90;999.90;;;25.40;48.10;;;;;;5051266;28;20199;-41
2021/03/27 09:46:41;;;;;;;1999.90;999.90;;;26.00;45.70;;;;;;5055750;28;20197;-46
2021/03/27 09:49:38;;;;;;;1999.90;999.90;;;26.00;46.60;;;;;;5050119;28;20234;-50
2021/03/27 09:52:30;;;;;;;1999.90;999.90;;;26.50;45.20;;;;;;5055604;28;20256;-49
2021/03/27 09:55:19;;;;;;;1999.90;999.90;;;27.00;42.20;;;;;;5055582;28;20161;-47
2021/03/27 09:58:13;;;;;;;1999.90;999.90;;;25.10;44.10;;;;;;5055674;28;20165;-49
2021/03/27 10:00:50;;;;;;;1999.90;999.90;;;24.80;45.30;;;;;;5055286;28;20162;-46
2021/03/27 10:03:39;;;;;;;1999.90;999.90;;;25.40;45.20;;;;;;5055391;28;20222;-40
2021/03/27 10:06:40;;;;;;;1999.90;999.90;;;25.10;44.30;;;;;;5054204;28;20224;-41
2021/03/27 10:09:23;;;;;;;1999.90;999.90;;;26.00;43.10;;;;;;5055271;28;20266;-46
2021/03/27 10:11:58;;;;;;;1999.90;999.90;;;26.80;39.30;;;;;;5055496;28;20492;-50
2021/03/27 10:14:35;;;;;;;1999.90;999.90;;;27.00;37.90;;;;;;5055195;28;20239;-47
2021/03/27 10:17:48;;;;;;;1999.90;999.90;;;27.30;38.00;;;;;;5055039;28;20166;-50
2021/03/27 10:20:39;;;;;;;1999.90;999.90;;;27.50;39.10;;;;;;5053396;28;20189;-48
2021/03/27 10:23:14;;;;;;;1999.90;999.90;;;27.30;43.50;;;;;;5054951;28;20160;-43
2021/03/27 10:26:01;;;;;;;1999.90;999.90;;;27.50;42.10;;;;;;5054814;28;20250;-48
2021/03/27 10:28:33;;;;;;;1999.90;999.90;;;27.00;38.20;;;;;;5054877;28;20161;-39
2021/03/27 10:31:11;;;;;;;1999.90;999.90;;;25.80;40.40;;;;;;5054857;28;20177;-48
2021/03/27 10:34:09;;;;;;;1999.90;999.90;;;25.10;41.80;;;;;;5054505;28;20247;-47
2021/03/27 10:37:01;;;;;;;1999.90;999.90;;;24.90;46.50;;;;;;5054975;28;20169;-35
2021/03/27 10:39:40;;;;;;;1999.90;999.90;;;24.20;46.30;;;;;;5054819;28;20524;-37
2021/03/27 10:42:22;;;;;;;1999.90;999.90;;;23.90;47.70;;;;;;5054959;28;20627;-49
2021/03/27 10:45:24;;;;;;;1999.90;999.90;;;23.80;49.50;;;;;;5054712;28;20176;-49
2021/03/27 10:48:06;;;;;;;1999.90;999.90;;;23.70;46.70;;;;;;5041909;28;20195;-42
2021/03/27 10:50:50;;;;;;;1999.90;999.90;;;24.20;47.20;;;;;;5054724;28;20165;-39
2021/03/27 10:53:42;;;;;;;1999.90;999.90;;;25.00;46.40;;;;;;5054756;28;20177;-41
2021/03/27 10:56:18;;;;;;;1999.90;999.90;;;25.60;46.00;;;;;;5054772;28;20540;-44
2021/03/27 10:59:25;;;;;;;1999.90;999.90;;;25.80;45.00;;;;;;5054544;28;20673;-48
2021/03/27 11:02:16;;;;;;;1999.90;999.90;;;25.50;45.50;;;;;;5054119;28;20246;-50
2021/03/27 11:05:01;;;;;;;1999.90;999.90;;;25.50;45.60;;;;;;5054365;28;20165;-52
2021/03/27 11:08:26;;;;;;;1999.90;999.90;;;25.80;46.50;;;;;;5054421;28;20170;-45
2021/03/27 11:11:41;;;;;;;1999.90;999.90;;;25.50;45.80;;;;;;5012463;28;20190;-49
2021/03/27 11:14:28;;;;;;;1999.90;999.90;;;25.00;47.70;;;;;;5012437;28;20166;-50
2021/03/27 11:17:25;;;;;;;1999.90;999.90;;;25.50;46.60;;;;;;5051657;28;20558;-52
2021/03/27 11:20:28;;;;;;;1999.90;999.90;;;26.10;45.30;;;;;;5054165;28;20248;-37
2021/03/27 11:23:34;;;;;;;1999.90;999.90;;;26.00;44.70;;;;;;5054223;28;20227;-51
2021/03/27 11:26:31;;;;;;;1999.90;999.90;;;25.80;45.00;;;;;;5053304;28;20232;-49
2021/03/27 11:29:09;;;;;;;1999.90;999.90;;;25.40;45.50;;;;;;5053832;28;20211;-48
2021/03/27 11:31:47;;;;;;;1999.90;999.90;;;25.30;46.50;;;;;;5053743;28;20243;-46
2021/03/27 11:34:32;;;;;;;1999.90;999.90;;;25.20;45.80;;;;;;5053474;28;20213;-48
2021/03/27 11:37:41;;;;;;;1999.90;999.90;;;25.20;46.40;;;;;;5053671;28;20168;-37
2021/03/27 11:40:20;;;;;;;1999.90;999.90;;;24.90;46.70;;;;;;5054065;28;20171;-50
2021/03/27 11:43:20;;;;;;;1999.90;999.90;;;24.80;47.80;;;;;;5053959;28;20565;-37
2021/03/27 11:45:56;;;;;;;1999.90;999.90;;;25.10;47.10;;;;;;5053312;28;20224;-46
2021/03/27 11:48:40;;;;;;;1999.90;999.90;;;25.50;46.80;;;;;;5053329;28;20157;-50
2021/03/27 11:51:34;;;;;;;1999.90;999.90;;;25.60;45.90;;;;;;5051939;28;20173;-48
2021/03/27 11:54:31;;;;;;;1999.90;999.90;;;25.30;46.40;;;;;;5053413;28;20149;-46
2021/03/27 11:57:10;;;;;;;1999.90;999.90;;;25.20;46.70;;;;;;5052018;28;20180;-46
2021/03/27 12:02:50;;;;;;;1999.90;999.90;;;24.20;48.70;;;;;;5052618;28;20165;-51
2021/03/27 12:05:37;;;;;;;1999.90;999.90;;;24.40;49.10;;;;;;5053340;28;20627;-45
2021/03/27 12:08:23;;;;;;;1999.90;999.90;;;24.70;48.40;;;;;;5053693;28;20522;-37
2021/03/27 12:11:10;;;;;;;1999.90;999.90;;;24.90;47.30;;;;;;5053842;28;20158;-48
2021/03/27 12:13:59;;;;;;;1999.90;999.90;;;24.40;48.00;;;;;;5053232;28;20180;-47
2021/03/27 12:16:59;;;;;;;1999.90;999.90;;;24.20;48.90;;;;;;5053414;28;20153;-49
2021/03/27 12:19:34;;;;;;;1999.90;999.90;;;24.30;48.50;;;;;;5052943;28;20245;-39
2021/03/27 12:22:07;;;;;;;1999.90;999.90;;;24.60;48.60;;;;;;5052989;28;20172;-37
2021/03/27 12:24:52;;;;;;;1999.90;999.90;;;24.90;47.20;;;;;;5052982;28;20164;-41
2021/03/27 12:27:47;;;;;;;1999.90;999.90;;;25.20;47.30;;;;;;5052592;28;20169;-37
2021/03/27 12:30:39;;;;;;;1999.90;999.90;;;25.50;47.20;;;;;;5052803;28;20156;-37
2021/03/27 12:33:14;;;;;;;1999.90;999.90;;;25.80;46.40;;;;;;5033294;28;20647;-39
2021/03/27 12:35:58;;;;;;;1999.90;999.90;;;26.10;46.00;;;;;;5052493;28;20696;-41
2021/03/27 12:38:28;;;;;;;1999.90;999.90;;;26.00;45.00;;;;;;5052711;28;20165;-41
2021/03/27 12:41:06;;;;;;;1999.90;999.90;;;26.00;45.40;;;;;;5052743;28;20501;-46
2021/03/27 12:43:42;;;;;;;1999.90;999.90;;;26.00;45.40;;;;;;5052775;28;20164;-40
2021/03/27 12:46:33;;;;;;;1999.90;999.90;;;26.10;46.30;;;;;;5052645;28;20197;-39
2021/03/27 12:49:27;;;;;;;1999.90;999.90;;;25.70;46.50;;;;;;5052846;28;20173;-39
2021/03/27 12:52:36;;;;;;;1999.90;999.90;;;25.10;47.30;;;;;;5052484;28;20223;-36
2021/03/27 12:55:48;;;;;;;1999.90;999.90;;;24.50;48.10;;;;;;5047039;28;20666;-48
2021/03/27 12:58:33;;;;;;;1999.90;999.90;;;24.60;49.70;;;;;;5010676;28;20585;-51
2021/03/27 13:01:31;;;;;;;1999.90;999.90;;;25.10;48.20;;;;;;5010333;28;20189;-50
2021/03/27 13:04:28;;;;;;;1999.90;999.90;;;25.10;48.60;;;;;;5046453;28;20215;-53
2021/03/27 13:07:24;;;;;;;1999.90;999.90;;;25.00;49.40;;;;;;5052266;28;20291;-43
2021/03/27 13:10:21;;;;;;;1999.90;999.90;;;24.50;50.20;;;;;;5052227;28;20165;-46
2021/03/27 13:13:20;;;;;;;1999.90;999.90;;;24.40;50.20;;;;;;5052172;28;20188;-48
2021/03/27 13:15:56;;;;;;;1999.90;999.90;;;24.40;50.70;;;;;;5052373;28;20165;-49
2021/03/27 13:18:26;;;;;;;1999.90;999.90;;;24.30;50.60;;;;;;5052291;28;20663;-47
2021/03/27 13:21:11;;;;;;;1999.90;999.90;;;24.30;51.30;;;;;;5052230;28;20539;-44
2021/03/27 13:24:19;;;;;;;1999.90;999.90;;;24.50;51.30;;;;;;5052163;28;20180;-47
2021/03/27 13:26:48;;;;;;;1999.90;999.90;;;24.50;49.90;;;;;;5040596;28;20290;-49
2021/03/27 13:29:37;;;;;;;1999.90;999.90;;;24.70;50.00;;;;;;5052168;28;20200;-48
2021/03/27 13:32:28;;;;;;;1999.90;999.90;;;24.60;51.10;;;;;;5052077;28;20165;-48
2021/03/27 13:35:16;;;;;;;1999.90;999.90;;;24.30;51.00;;;;;;5051708;28;20213;-49